sensor_id;sensor_type;location;lat;lon;timestamp;P1;durP1;ratioP1;P2;durP2;ratioP2
27367;SDS011;14839;48.106;11.618;2022-08-20T04:02:44;15.17;;;10.13;;
27367;SDS011;14839;48.106;11.618;2022-08-20T04:05:10;13.67;;;9.83;;
27367;SDS011;14839;48.106;11.618;2022-08-20T04:07:36;14.27;;;10.70;;
27367;SDS011;14839;48.106;11.618;2022-08-20T04:10:04;14.60;;;9.90;;
27367;SDS011;14839;48.106;11.618;2022-08-20T04:12:34;13.37;;;10.30;;
27367;SDS011;14839;48.106;11.618;2022-08-20T04:15:03;14.23;;;9.97;;
27367;SDS011;14839;48.106;11.618;2022-08-20T04:17:29;15.03;;;10.40;;
27367;SDS011;14839;48.106;11.618;2022-08-20T04:19:57;12.93;;;10.00;;
27367;SDS011;14839;48.106;11.618;2022-08-20T04:22:22;13.57;;;9.83;;
27367;SDS011;14839;48.106;11.618;2022-08-20T04:24:48;17.27;;;10.30;;
27367;SDS011;14839;48.106;11.618;2022-08-20T04:27:14;15.43;;;10.50;;
27367;SDS011;14839;48.106;11.618;2022-08-20T04:29:40;16.20;;;10.50;;
27367;SDS011;14839;48.106;11.618;2022-08-20T04:32:09;11.37;;;9.63;;
27367;SDS011;14839;48.106;11.618;2022-08-20T04:34:36;15.00;;;10.07;;
27367;SDS011;14839;48.106;11.618;2022-08-20T04:37:02;14.13;;;10.17;;
27367;SDS011;14839;48.106;11.618;2022-08-20T04:39:28;14.37;;;10.30;;
27367;SDS011;14839;48.106;11.618;2022-08-20T04:41:54;14.13;;;9.97;;
27367;SDS011;14839;48.106;11.618;2022-08-20T04:44:19;15.30;;;10.67;;
27367;SDS011;14839;48.106;11.618;2022-08-20T04:46:46;15.87;;;10.47;;
27367;SDS011;14839;48.106;11.618;2022-08-20T04:49:12;15.77;;;10.60;;
27367;SDS011;14839;48.106;11.618;2022-08-20T04:51:37;14.53;;;10.40;;
27367;SDS011;14839;48.106;11.618;2022-08-20T04:54:03;14.87;;;10.00;;
27367;SDS011;14839;48.106;11.618;2022-08-20T04:56:30;14.87;;;9.33;;
27367;SDS011;14839;48.106;11.618;2022-08-20T04:58:59;12.97;;;9.90;;
27367;SDS011;14839;48.106;11.618;2022-08-20T05:01:26;14.83;;;9.80;;
27367;SDS011;14839;48.106;11.618;2022-08-20T05:03:53;13.30;;;10.20;;
27367;SDS011;14839;48.106;11.618;2022-08-20T05:06:19;14.60;;;9.50;;
27367;SDS011;14839;48.106;11.618;2022-08-20T05:08:48;13.40;;;9.90;;
27367;SDS011;14839;48.106;11.618;2022-08-20T05:11:14;13.13;;;10.20;;
27367;SDS011;14839;48.106;11.618;2022-08-20T05:13:39;14.20;;;9.70;;
27367;SDS011;14839;48.106;11.618;2022-08-20T05:16:06;14.90;;;9.90;;
27367;SDS011;14839;48.106;11.618;2022-08-20T05:18:32;12.20;;;9.63;;
27367;SDS011;14839;48.106;11.618;2022-08-20T05:20:59;15.47;;;10.23;;
27367;SDS011;14839;48.106;11.618;2022-08-20T05:23:30;13.60;;;9.70;;
27367;SDS011;14839;48.106;11.618;2022-08-20T05:25:57;14.97;;;9.77;;
27367;SDS011;14839;48.106;11.618;2022-08-20T05:28:24;13.27;;;9.50;;
27367;SDS011;14839;48.106;11.618;2022-08-20T05:30:54;11.67;;;9.20;;
27367;SDS011;14839;48.106;11.618;2022-08-20T05:33:20;13.40;;;10.17;;
27367;SDS011;14839;48.106;11.618;2022-08-20T05:35:47;15.00;;;10.07;;
27367;SDS011;14839;48.106;11.618;2022-08-20T05:38:15;14.20;;;9.77;;
27367;SDS011;14839;48.106;11.618;2022-08-20T05:40:42;14.90;;;9.53;;
27367;SDS011;14839;48.106;11.618;2022-08-20T05:43:09;12.40;;;9.30;;
27367;SDS011;14839;48.106;11.618;2022-08-20T05:45:35;17.27;;;9.70;;
27367;SDS011;14839;48.106;11.618;2022-08-20T05:48:03;13.63;;;10.17;;
27367;SDS011;14839;48.106;11.618;2022-08-20T05:50:38;11.47;;;8.97;;
27367;SDS011;14839;48.106;11.618;2022-08-20T05:53:04;14.60;;;9.90;;
27367;SDS011;14839;48.106;11.618;2022-08-20T05:55:30;13.27;;;9.30;;
27367;SDS011;14839;48.106;11.618;2022-08-20T05:57:57;13.20;;;9.60;;
27367;SDS011;14839;48.106;11.618;2022-08-20T06:00:24;15.43;;;9.63;;
27367;SDS011;14839;48.106;11.618;2022-08-20T06:02:50;12.60;;;9.80;;
27367;SDS011;14839;48.106;11.618;2022-08-20T06:05:34;12.97;;;8.77;;
27367;SDS011;14839;48.106;11.618;2022-08-20T06:07:59;14.43;;;10.03;;
27367;SDS011;14839;48.106;11.618;2022-08-20T06:10:27;12.13;;;8.97;;
27367;SDS011;14839;48.106;11.618;2022-08-20T06:12:52;13.77;;;9.70;;
27367;SDS011;14839;48.106;11.618;2022-08-20T06:15:18;12.27;;;9.50;;
27367;SDS011;14839;48.106;11.618;2022-08-20T06:17:45;12.07;;;8.87;;
27367;SDS011;14839;48.106;11.618;2022-08-20T06:20:10;11.70;;;9.27;;
27367;SDS011;14839;48.106;11.618;2022-08-20T06:22:36;11.67;;;8.70;;
27367;SDS011;14839;48.106;11.618;2022-08-20T06:25:03;11.60;;;8.90;;
27367;SDS011;14839;48.106;11.618;2022-08-20T06:27:30;10.73;;;8.20;;
27367;SDS011;14839;48.106;11.618;2022-08-20T06:29:56;10.93;;;8.83;;
27367;SDS011;14839;48.106;11.618;2022-08-20T06:32:22;12.70;;;8.57;;
27367;SDS011;14839;48.106;11.618;2022-08-20T06:34:51;11.60;;;8.03;;
27367;SDS011;14839;48.106;11.618;2022-08-20T06:37:18;10.90;;;7.70;;
27367;SDS011;14839;48.106;11.618;2022-08-20T06:39:47;11.93;;;8.73;;
27367;SDS011;14839;48.106;11.618;2022-08-20T06:42:13;18.23;;;7.80;;
27367;SDS011;14839;48.106;11.618;2022-08-20T06:44:38;13.67;;;8.53;;
27367;SDS011;14839;48.106;11.618;2022-08-20T06:47:04;11.30;;;8.47;;
27367;SDS011;14839;48.106;11.618;2022-08-20T06:49:30;13.30;;;7.50;;
27367;SDS011;14839;48.106;11.618;2022-08-20T06:51:59;10.40;;;7.20;;
27367;SDS011;14839;48.106;11.618;2022-08-20T06:54:24;14.00;;;7.90;;
27367;SDS011;14839;48.106;11.618;2022-08-20T06:56:50;9.07;;;7.27;;
27367;SDS011;14839;48.106;11.618;2022-08-20T06:59:18;10.90;;;6.90;;
27367;SDS011;14839;48.106;11.618;2022-08-20T07:01:44;9.77;;;7.80;;
27367;SDS011;14839;48.106;11.618;2022-08-20T07:04:10;10.97;;;7.90;;
27367;SDS011;14839;48.106;11.618;2022-08-20T07:06:35;10.37;;;7.90;;
27367;SDS011;14839;48.106;11.618;2022-08-20T07:09:01;10.07;;;7.47;;
27367;SDS011;14839;48.106;11.618;2022-08-20T07:11:27;11.00;;;7.70;;
27367;SDS011;14839;48.106;11.618;2022-08-20T07:13:53;11.23;;;7.47;;
27367;SDS011;14839;48.106;11.618;2022-08-20T07:16:20;13.33;;;8.27;;
27367;SDS011;14839;48.106;11.618;2022-08-20T07:18:46;11.33;;;7.40;;
27367;SDS011;14839;48.106;11.618;2022-08-20T07:21:11;10.27;;;7.50;;
27367;SDS011;14839;48.106;11.618;2022-08-20T07:23:37;10.37;;;7.60;;
27367;SDS011;14839;48.106;11.618;2022-08-20T07:26:03;11.00;;;6.70;;
27367;SDS011;14839;48.106;11.618;2022-08-20T07:28:29;11.33;;;7.67;;
27367;SDS011;14839;48.106;11.618;2022-08-20T07:30:56;8.50;;;7.10;;
27367;SDS011;14839;48.106;11.618;2022-08-20T07:33:40;10.40;;;7.53;;
27367;SDS011;14839;48.106;11.618;2022-08-20T07:36:07;12.43;;;7.03;;
27367;SDS011;14839;48.106;11.618;2022-08-20T07:38:33;10.63;;;6.70;;
27367;SDS011;14839;48.106;11.618;2022-08-20T07:41:04;8.17;;;6.67;;
27367;SDS011;14839;48.106;11.618;2022-08-20T07:43:37;10.40;;;7.27;;
27367;SDS011;14839;48.106;11.618;2022-08-20T07:46:04;9.13;;;6.93;;
27367;SDS011;14839;48.106;11.618;2022-08-20T07:48:31;8.47;;;6.60;;
27367;SDS011;14839;48.106;11.618;2022-08-20T07:51:02;7.93;;;6.40;;
27367;SDS011;14839;48.106;11.618;2022-08-20T07:53:29;8.97;;;7.10;;
27367;SDS011;14839;48.106;11.618;2022-08-20T07:55:57;9.80;;;7.20;;
27367;SDS011;14839;48.106;11.618;2022-08-20T07:58:24;9.60;;;6.33;;
27367;SDS011;14839;48.106;11.618;2022-08-20T08:00:49;7.80;;;7.00;;
27367;SDS011;14839;48.106;11.618;2022-08-20T08:03:15;9.87;;;6.83;;
27367;SDS011;14839;48.106;11.618;2022-08-20T08:05:42;10.47;;;7.60;;
27367;SDS011;14839;48.106;11.618;2022-08-20T08:08:11;8.87;;;7.07;;
27367;SDS011;14839;48.106;11.618;2022-08-20T08:10:41;8.83;;;6.33;;
27367;SDS011;14839;48.106;11.618;2022-08-20T08:13:08;8.03;;;5.97;;
27367;SDS011;14839;48.106;11.618;2022-08-20T08:15:38;7.57;;;5.70;;
27367;SDS011;14839;48.106;11.618;2022-08-20T08:18:10;9.87;;;6.30;;
27367;SDS011;14839;48.106;11.618;2022-08-20T08:20:44;8.67;;;6.93;;
27367;SDS011;14839;48.106;11.618;2022-08-20T08:23:10;8.77;;;6.47;;
27367;SDS011;14839;48.106;11.618;2022-08-20T08:25:40;8.47;;;6.37;;
27367;SDS011;14839;48.106;11.618;2022-08-20T08:28:07;7.67;;;6.07;;
27367;SDS011;14839;48.106;11.618;2022-08-20T08:30:35;7.93;;;6.43;;
27367;SDS011;14839;48.106;11.618;2022-08-20T08:33:17;8.50;;;6.33;;
27367;SDS011;14839;48.106;11.618;2022-08-20T08:35:55;9.23;;;6.53;;
27367;SDS011;14839;48.106;11.618;2022-08-20T08:38:21;8.40;;;5.63;;
27367;SDS011;14839;48.106;11.618;2022-08-20T08:40:48;8.17;;;6.23;;
27367;SDS011;14839;48.106;11.618;2022-08-20T08:43:18;7.93;;;6.27;;
27367;SDS011;14839;48.106;11.618;2022-08-20T08:45:46;9.17;;;6.30;;
27367;SDS011;14839;48.106;11.618;2022-08-20T08:48:29;9.17;;;7.03;;
27367;SDS011;14839;48.106;11.618;2022-08-20T08:50:57;9.80;;;6.73;;
27367;SDS011;14839;48.106;11.618;2022-08-20T08:53:25;9.07;;;6.17;;
27367;SDS011;14839;48.106;11.618;2022-08-20T08:55:55;7.67;;;6.40;;
27367;SDS011;14839;48.106;11.618;2022-08-20T08:58:20;7.87;;;5.53;;
27367;SDS011;14839;48.106;11.618;2022-08-20T09:00:46;8.83;;;7.17;;
27367;SDS011;14839;48.106;11.618;2022-08-20T09:03:21;7.03;;;6.33;;
27367;SDS011;14839;48.106;11.618;2022-08-20T09:05:54;9.40;;;7.00;;
27367;SDS011;14839;48.106;11.618;2022-08-20T09:08:25;10.03;;;7.57;;
27367;SDS011;14839;48.106;11.618;2022-08-20T09:10:59;10.87;;;7.10;;
27367;SDS011;14839;48.106;11.618;2022-08-20T09:13:30;10.67;;;7.80;;
27367;SDS011;14839;48.106;11.618;2022-08-20T09:15:55;8.67;;;7.43;;
27367;SDS011;14839;48.106;11.618;2022-08-20T09:18:21;12.37;;;7.37;;
27367;SDS011;14839;48.106;11.618;2022-08-20T09:20:47;8.80;;;7.10;;
27367;SDS011;14839;48.106;11.618;2022-08-20T09:23:12;11.13;;;7.80;;
27367;SDS011;14839;48.106;11.618;2022-08-20T09:25:38;12.47;;;7.77;;
27367;SDS011;14839;48.106;11.618;2022-08-20T09:28:03;9.07;;;8.10;;
27367;SDS011;14839;48.106;11.618;2022-08-20T09:30:29;10.87;;;8.40;;
27367;SDS011;14839;48.106;11.618;2022-08-20T09:32:57;10.50;;;8.23;;
27367;SDS011;14839;48.106;11.618;2022-08-20T09:35:23;9.00;;;7.40;;
27367;SDS011;14839;48.106;11.618;2022-08-20T09:37:49;9.63;;;7.73;;
27367;SDS011;14839;48.106;11.618;2022-08-20T09:40:16;7.90;;;7.07;;
27367;SDS011;14839;48.106;11.618;2022-08-20T09:42:42;8.80;;;7.30;;
27367;SDS011;14839;48.106;11.618;2022-08-20T09:45:08;9.23;;;7.63;;
27367;SDS011;14839;48.106;11.618;2022-08-20T09:47:35;13.27;;;8.97;;
27367;SDS011;14839;48.106;11.618;2022-08-20T09:50:00;11.27;;;8.10;;
27367;SDS011;14839;48.106;11.618;2022-08-20T09:52:28;11.43;;;8.37;;
27367;SDS011;14839;48.106;11.618;2022-08-20T09:54:58;10.70;;;8.50;;
27367;SDS011;14839;48.106;11.618;2022-08-20T09:57:29;11.83;;;8.43;;
27367;SDS011;14839;48.106;11.618;2022-08-20T09:59:59;12.70;;;8.07;;
27367;SDS011;14839;48.106;11.618;2022-08-20T10:02:28;10.63;;;8.67;;
27367;SDS011;14839;48.106;11.618;2022-08-20T10:04:53;8.33;;;7.43;;
27367;SDS011;14839;48.106;11.618;2022-08-20T10:07:19;14.40;;;8.83;;
27367;SDS011;14839;48.106;11.618;2022-08-20T10:09:45;10.50;;;8.37;;
27367;SDS011;14839;48.106;11.618;2022-08-20T10:12:10;11.47;;;9.00;;
27367;SDS011;14839;48.106;11.618;2022-08-20T10:14:36;9.73;;;7.63;;
27367;SDS011;14839;48.106;11.618;2022-08-20T10:17:02;11.70;;;9.07;;
27367;SDS011;14839;48.106;11.618;2022-08-20T10:19:28;10.63;;;8.37;;
27367;SDS011;14839;48.106;11.618;2022-08-20T10:21:55;11.23;;;8.87;;
27367;SDS011;14839;48.106;11.618;2022-08-20T10:24:21;11.10;;;8.50;;
27367;SDS011;14839;48.106;11.618;2022-08-20T10:26:47;13.07;;;9.00;;
27367;SDS011;14839;48.106;11.618;2022-08-20T10:29:13;9.87;;;8.23;;
27367;SDS011;14839;48.106;11.618;2022-08-20T10:31:39;9.67;;;8.23;;
27367;SDS011;14839;48.106;11.618;2022-08-20T10:34:05;10.50;;;8.53;;
27367;SDS011;14839;48.106;11.618;2022-08-20T10:36:31;14.07;;;9.60;;
27367;SDS011;14839;48.106;11.618;2022-08-20T10:38:57;10.27;;;8.67;;
27367;SDS011;14839;48.106;11.618;2022-08-20T10:41:22;11.70;;;8.60;;
27367;SDS011;14839;48.106;11.618;2022-08-20T10:43:48;11.93;;;9.53;;
27367;SDS011;14839;48.106;11.618;2022-08-20T10:46:14;11.47;;;9.33;;
27367;SDS011;14839;48.106;11.618;2022-08-20T10:48:40;11.03;;;9.13;;
27367;SDS011;14839;48.106;11.618;2022-08-20T10:51:06;11.80;;;9.30;;
27367;SDS011;14839;48.106;11.618;2022-08-20T10:53:31;10.20;;;8.53;;
27367;SDS011;14839;48.106;11.618;2022-08-20T10:55:57;10.60;;;9.00;;
27367;SDS011;14839;48.106;11.618;2022-08-20T10:58:23;10.60;;;8.67;;
27367;SDS011;14839;48.106;11.618;2022-08-20T11:00:50;11.57;;;9.47;;
27367;SDS011;14839;48.106;11.618;2022-08-20T11:03:16;10.43;;;9.07;;
27367;SDS011;14839;48.106;11.618;2022-08-20T11:05:42;11.10;;;9.00;;
27367;SDS011;14839;48.106;11.618;2022-08-20T11:08:08;10.57;;;9.07;;
27367;SDS011;14839;48.106;11.618;2022-08-20T11:10:34;14.73;;;10.13;;
27367;SDS011;14839;48.106;11.618;2022-08-20T11:13:02;11.17;;;8.73;;
27367;SDS011;14839;48.106;11.618;2022-08-20T11:15:29;10.17;;;9.07;;
27367;SDS011;14839;48.106;11.618;2022-08-20T11:17:56;10.73;;;9.27;;
27367;SDS011;14839;48.106;11.618;2022-08-20T11:20:23;10.83;;;8.47;;
27367;SDS011;14839;48.106;11.618;2022-08-20T11:22:50;11.37;;;9.00;;
27367;SDS011;14839;48.106;11.618;2022-08-20T11:25:16;13.50;;;10.37;;
27367;SDS011;14839;48.106;11.618;2022-08-20T11:27:44;11.13;;;8.90;;
27367;SDS011;14839;48.106;11.618;2022-08-20T11:30:13;14.63;;;9.43;;
27367;SDS011;14839;48.106;11.618;2022-08-20T11:32:41;13.50;;;10.37;;
27367;SDS011;14839;48.106;11.618;2022-08-20T11:35:07;15.57;;;10.93;;
27367;SDS011;14839;48.106;11.618;2022-08-20T11:37:33;15.33;;;12.70;;
27367;SDS011;14839;48.106;11.618;2022-08-20T11:39:59;13.00;;;11.07;;
27367;SDS011;14839;48.106;11.618;2022-08-20T11:42:24;14.97;;;11.17;;
27367;SDS011;14839;48.106;11.618;2022-08-20T11:44:50;14.20;;;11.67;;
27367;SDS011;14839;48.106;11.618;2022-08-20T11:47:20;12.67;;;10.87;;
27367;SDS011;14839;48.106;11.618;2022-08-20T11:49:54;14.73;;;11.07;;
27367;SDS011;14839;48.106;11.618;2022-08-20T11:52:24;12.47;;;10.53;;
27367;SDS011;14839;48.106;11.618;2022-08-20T11:54:51;12.57;;;9.67;;
27367;SDS011;14839;48.106;11.618;2022-08-20T11:57:20;10.30;;;8.67;;
27367;SDS011;14839;48.106;11.618;2022-08-20T11:59:48;10.87;;;9.23;;
27367;SDS011;14839;48.106;11.618;2022-08-20T12:02:14;9.77;;;8.73;;
27367;SDS011;14839;48.106;11.618;2022-08-20T12:04:39;15.48;;;8.98;;
27367;SDS011;14839;48.106;11.618;2022-08-20T12:07:11;10.30;;;8.07;;
27367;SDS011;14839;48.106;11.618;2022-08-20T12:09:39;10.25;;;7.78;;
27367;SDS011;14839;48.106;11.618;2022-08-20T12:12:05;8.23;;;7.43;;
27367;SDS011;14839;48.106;11.618;2022-08-20T12:14:31;8.27;;;7.47;;
27367;SDS011;14839;48.106;11.618;2022-08-20T12:16:56;7.47;;;6.77;;
27367;SDS011;14839;48.106;11.618;2022-08-20T12:19:22;8.27;;;6.43;;
27367;SDS011;14839;48.106;11.618;2022-08-20T12:21:47;6.90;;;5.83;;
27367;SDS011;14839;48.106;11.618;2022-08-20T12:24:13;6.03;;;5.43;;
27367;SDS011;14839;48.106;11.618;2022-08-20T12:26:38;5.53;;;4.93;;
27367;SDS011;14839;48.106;11.618;2022-08-20T12:29:04;5.80;;;4.23;;
27367;SDS011;14839;48.106;11.618;2022-08-20T12:31:30;5.83;;;5.23;;
27367;SDS011;14839;48.106;11.618;2022-08-20T12:33:56;5.07;;;4.53;;
27367;SDS011;14839;48.106;11.618;2022-08-20T12:36:22;5.83;;;5.23;;
27367;SDS011;14839;48.106;11.618;2022-08-20T12:38:47;4.93;;;4.23;;
27367;SDS011;14839;48.106;11.618;2022-08-20T12:41:13;6.07;;;5.33;;
27367;SDS011;14839;48.106;11.618;2022-08-20T12:43:38;6.03;;;5.03;;
27367;SDS011;14839;48.106;11.618;2022-08-20T12:46:04;5.30;;;4.80;;
27367;SDS011;14839;48.106;11.618;2022-08-20T12:48:30;6.23;;;5.63;;
27367;SDS011;14839;48.106;11.618;2022-08-20T12:50:55;5.77;;;4.73;;
27367;SDS011;14839;48.106;11.618;2022-08-20T12:53:21;5.70;;;5.10;;
27367;SDS011;14839;48.106;11.618;2022-08-20T12:55:46;6.38;;;4.90;;
27367;SDS011;14839;48.106;11.618;2022-08-20T12:58:12;5.40;;;4.90;;
27367;SDS011;14839;48.106;11.618;2022-08-20T13:00:39;5.38;;;4.85;;
27367;SDS011;14839;48.106;11.618;2022-08-20T13:03:08;6.00;;;4.35;;
27367;SDS011;14839;48.106;11.618;2022-08-20T13:05:35;6.00;;;4.80;;
27367;SDS011;14839;48.106;11.618;2022-08-20T13:08:01;6.53;;;4.80;;
27367;SDS011;14839;48.106;11.618;2022-08-20T13:10:32;5.38;;;4.68;;
27367;SDS011;14839;48.106;11.618;2022-08-20T13:12:59;6.57;;;5.00;;
27367;SDS011;14839;48.106;11.618;2022-08-20T13:15:27;4.93;;;4.22;;
27367;SDS011;14839;48.106;11.618;2022-08-20T13:17:57;5.72;;;4.43;;
27367;SDS011;14839;48.106;11.618;2022-08-20T13:20:24;5.60;;;4.25;;
27367;SDS011;14839;48.106;11.618;2022-08-20T13:22:51;5.28;;;4.18;;
27367;SDS011;14839;48.106;11.618;2022-08-20T13:25:17;4.80;;;4.40;;
27367;SDS011;14839;48.106;11.618;2022-08-20T13:27:44;4.55;;;4.15;;
27367;SDS011;14839;48.106;11.618;2022-08-20T13:30:11;5.20;;;4.53;;
27367;SDS011;14839;48.106;11.618;2022-08-20T13:32:40;5.90;;;4.13;;
27367;SDS011;14839;48.106;11.618;2022-08-20T13:35:05;5.45;;;3.95;;
27367;SDS011;14839;48.106;11.618;2022-08-20T13:37:32;4.13;;;3.72;;
27367;SDS011;14839;48.106;11.618;2022-08-20T13:39:57;4.63;;;4.05;;
27367;SDS011;14839;48.106;11.618;2022-08-20T13:42:25;4.00;;;3.60;;
27367;SDS011;14839;48.106;11.618;2022-08-20T13:44:51;4.18;;;3.78;;
27367;SDS011;14839;48.106;11.618;2022-08-20T13:47:19;4.65;;;4.13;;
27367;SDS011;14839;48.106;11.618;2022-08-20T13:49:57;4.85;;;4.00;;
27367;SDS011;14839;48.106;11.618;2022-08-20T13:52:25;4.45;;;4.05;;
27367;SDS011;14839;48.106;11.618;2022-08-20T13:54:51;4.90;;;3.75;;
27367;SDS011;14839;48.106;11.618;2022-08-20T13:57:17;4.13;;;3.30;;
27367;SDS011;14839;48.106;11.618;2022-08-20T13:59:45;5.45;;;3.80;;
27367;SDS011;14839;48.106;11.618;2022-08-20T14:02:12;4.05;;;2.90;;
27367;SDS011;14839;48.106;11.618;2022-08-20T14:04:39;3.75;;;3.20;;
27367;SDS011;14839;48.106;11.618;2022-08-20T14:07:24;4.38;;;3.40;;
27367;SDS011;14839;48.106;11.618;2022-08-20T14:09:53;3.95;;;3.55;;
27367;SDS011;14839;48.106;11.618;2022-08-20T14:12:21;3.80;;;3.30;;
27367;SDS011;14839;48.106;11.618;2022-08-20T14:14:47;3.72;;;3.35;;
27367;SDS011;14839;48.106;11.618;2022-08-20T14:17:23;5.47;;;3.63;;
27367;SDS011;14839;48.106;11.618;2022-08-20T14:19:52;3.65;;;3.20;;
27367;SDS011;14839;48.106;11.618;2022-08-20T14:22:19;1.60;;;1.30;;
27367;SDS011;14839;48.106;11.618;2022-08-20T14:24:46;1.65;;;1.50;;
27367;SDS011;14839;48.106;11.618;2022-08-20T14:27:13;1.05;;;0.95;;
27367;SDS011;14839;48.106;11.618;2022-08-20T14:29:40;2.60;;;1.50;;
27367;SDS011;14839;48.106;11.618;2022-08-20T14:32:07;1.67;;;1.20;;
27367;SDS011;14839;48.106;11.618;2022-08-20T14:34:32;3.80;;;1.23;;
27367;SDS011;14839;48.106;11.618;2022-08-20T14:39:55;1.80;;;1.03;;
27367;SDS011;14839;48.106;11.618;2022-08-20T14:42:24;2.00;;;1.10;;
27367;SDS011;14839;48.106;11.618;2022-08-20T14:44:52;1.37;;;1.20;;
27367;SDS011;14839;48.106;11.618;2022-08-20T14:47:20;1.10;;;1.00;;
27367;SDS011;14839;48.106;11.618;2022-08-20T14:49:48;1.57;;;1.10;;
27367;SDS011;14839;48.106;11.618;2022-08-20T14:52:15;1.03;;;0.97;;
27367;SDS011;14839;48.106;11.618;2022-08-20T14:54:43;2.33;;;1.30;;
27367;SDS011;14839;48.106;11.618;2022-08-20T14:57:09;2.07;;;1.30;;
27367;SDS011;14839;48.106;11.618;2022-08-20T14:59:35;3.07;;;1.53;;
27367;SDS011;14839;48.106;11.618;2022-08-20T15:02:02;3.00;;;1.70;;
27367;SDS011;14839;48.106;11.618;2022-08-20T15:04:29;3.97;;;1.57;;
27367;SDS011;14839;48.106;11.618;2022-08-20T15:06:56;5.90;;;1.67;;
27367;SDS011;14839;48.106;11.618;2022-08-20T15:09:21;2.93;;;1.60;;
27367;SDS011;14839;48.106;11.618;2022-08-20T15:11:47;2.07;;;1.57;;
27367;SDS011;14839;48.106;11.618;2022-08-20T15:14:13;4.73;;;1.57;;
27367;SDS011;14839;48.106;11.618;2022-08-20T15:16:38;4.33;;;2.07;;
27367;SDS011;14839;48.106;11.618;2022-08-20T15:19:04;1.70;;;1.37;;
27367;SDS011;14839;48.106;11.618;2022-08-20T15:21:30;2.37;;;1.87;;
27367;SDS011;14839;48.106;11.618;2022-08-20T15:23:56;2.90;;;1.53;;
27367;SDS011;14839;48.106;11.618;2022-08-20T15:26:22;1.83;;;1.10;;
27367;SDS011;14839;48.106;11.618;2022-08-20T15:28:47;2.33;;;0.87;;
27367;SDS011;14839;48.106;11.618;2022-08-20T15:31:13;2.10;;;0.60;;
27367;SDS011;14839;48.106;11.618;2022-08-20T15:33:39;1.20;;;0.80;;
27367;SDS011;14839;48.106;11.618;2022-08-20T15:36:05;3.77;;;1.17;;
27367;SDS011;14839;48.106;11.618;2022-08-20T15:38:33;2.33;;;0.97;;
27367;SDS011;14839;48.106;11.618;2022-08-20T15:40:59;1.10;;;0.80;;
27367;SDS011;14839;48.106;11.618;2022-08-20T15:43:26;1.27;;;0.97;;
27367;SDS011;14839;48.106;11.618;2022-08-20T15:45:52;1.20;;;0.97;;
27367;SDS011;14839;48.106;11.618;2022-08-20T15:48:19;3.37;;;1.10;;
27367;SDS011;14839;48.106;11.618;2022-08-20T16:04:26;2.10;;;1.20;;
27367;SDS011;14839;48.106;11.618;2022-08-20T16:07:07;0.80;;;0.80;;
27367;SDS011;14839;48.106;11.618;2022-08-20T16:12:32;2.97;;;1.13;;
27367;SDS011;14839;48.106;11.618;2022-08-20T16:15:04;3.53;;;1.60;;
27367;SDS011;14839;48.106;11.618;2022-08-20T16:20:41;1.73;;;0.93;;
27367;SDS011;14839;48.106;11.618;2022-08-20T16:23:09;2.97;;;1.20;;
27367;SDS011;14839;48.106;11.618;2022-08-20T16:25:58;4.63;;;1.30;;
27367;SDS011;14839;48.106;11.618;2022-08-20T16:31:27;1.50;;;1.20;;
27367;SDS011;14839;48.106;11.618;2022-08-20T16:34:19;1.73;;;1.30;;
27367;SDS011;14839;48.106;11.618;2022-08-20T16:40:23;1.50;;;1.37;;
27367;SDS011;14839;48.106;11.618;2022-08-20T16:42:43;2.40;;;1.60;;
27367;SDS011;14839;48.106;11.618;2022-08-20T16:45:18;1.33;;;1.13;;
27367;SDS011;14839;48.106;11.618;2022-08-20T16:47:48;1.70;;;1.20;;
27367;SDS011;14839;48.106;11.618;2022-08-20T16:50:19;3.00;;;1.50;;
27367;SDS011;14839;48.106;11.618;2022-08-20T16:52:46;2.00;;;1.37;;
27367;SDS011;14839;48.106;11.618;2022-08-20T16:55:14;1.27;;;1.13;;
27367;SDS011;14839;48.106;11.618;2022-08-20T16:57:39;3.47;;;1.67;;
27367;SDS011;14839;48.106;11.618;2022-08-20T17:00:07;3.10;;;1.70;;
27367;SDS011;14839;48.106;11.618;2022-08-20T17:02:47;2.90;;;1.60;;
27367;SDS011;14839;48.106;11.618;2022-08-20T17:05:25;1.87;;;1.30;;
27367;SDS011;14839;48.106;11.618;2022-08-20T17:07:58;2.10;;;1.67;;
27367;SDS011;14839;48.106;11.618;2022-08-20T17:10:29;5.20;;;1.40;;
27367;SDS011;14839;48.106;11.618;2022-08-20T17:15:28;4.07;;;1.60;;
27367;SDS011;14839;48.106;11.618;2022-08-20T17:17:55;2.90;;;1.73;;
27367;SDS011;14839;48.106;11.618;2022-08-20T17:20:22;4.33;;;1.87;;
27367;SDS011;14839;48.106;11.618;2022-08-20T17:22:51;2.47;;;1.50;;
27367;SDS011;14839;48.106;11.618;2022-08-20T17:25:30;1.30;;;1.20;;
27367;SDS011;14839;48.106;11.618;2022-08-20T17:27:58;3.63;;;1.70;;
27367;SDS011;14839;48.106;11.618;2022-08-20T17:30:35;3.00;;;1.80;;
27367;SDS011;14839;48.106;11.618;2022-08-20T17:33:05;2.13;;;1.47;;
27367;SDS011;14839;48.106;11.618;2022-08-20T17:35:43;5.00;;;1.63;;
27367;SDS011;14839;48.106;11.618;2022-08-20T17:38:26;2.10;;;1.60;;
27367;SDS011;14839;48.106;11.618;2022-08-20T17:40:59;1.63;;;1.13;;
27367;SDS011;14839;48.106;11.618;2022-08-20T17:43:28;3.17;;;1.60;;
27367;SDS011;14839;48.106;11.618;2022-08-20T17:45:57;2.93;;;1.73;;
27367;SDS011;14839;48.106;11.618;2022-08-20T17:48:27;2.50;;;1.63;;
27367;SDS011;14839;48.106;11.618;2022-08-20T17:50:57;2.93;;;1.77;;
27367;SDS011;14839;48.106;11.618;2022-08-20T17:53:25;1.53;;;1.10;;
27367;SDS011;14839;48.106;11.618;2022-08-20T17:55:55;2.80;;;1.70;;
27367;SDS011;14839;48.106;11.618;2022-08-20T17:58:34;2.10;;;1.90;;
27367;SDS011;14839;48.106;11.618;2022-08-20T18:01:06;1.47;;;1.30;;
27367;SDS011;14839;48.106;11.618;2022-08-20T18:03:35;3.13;;;1.67;;
27367;SDS011;14839;48.106;11.618;2022-08-20T18:06:01;1.50;;;1.40;;
27367;SDS011;14839;48.106;11.618;2022-08-20T18:19:42;1.57;;;1.47;;
27367;SDS011;14839;48.106;11.618;2022-08-20T18:22:27;2.43;;;1.97;;
27367;SDS011;14839;48.106;11.618;2022-08-20T18:25:07;2.50;;;1.90;;
27367;SDS011;14839;48.106;11.618;2022-08-20T18:27:48;3.43;;;2.33;;
27367;SDS011;14839;48.106;11.618;2022-08-20T18:30:18;1.67;;;1.57;;
27367;SDS011;14839;48.106;11.618;2022-08-20T18:32:46;2.60;;;1.83;;
27367;SDS011;14839;48.106;11.618;2022-08-20T18:37:44;4.63;;;2.37;;
27367;SDS011;14839;48.106;11.618;2022-08-20T18:40:20;2.30;;;1.80;;
27367;SDS011;14839;48.106;11.618;2022-08-20T18:42:52;2.50;;;1.70;;
27367;SDS011;14839;48.106;11.618;2022-08-20T18:45:28;4.13;;;2.17;;
27367;SDS011;14839;48.106;11.618;2022-08-20T18:47:59;1.53;;;1.43;;
27367;SDS011;14839;48.106;11.618;2022-08-20T18:50:29;2.97;;;1.70;;
27367;SDS011;14839;48.106;11.618;2022-08-20T18:53:14;2.50;;;1.57;;
27367;SDS011;14839;48.106;11.618;2022-08-20T18:55:42;3.03;;;2.03;;
27367;SDS011;14839;48.106;11.618;2022-08-20T18:58:30;2.73;;;1.80;;
27367;SDS011;14839;48.106;11.618;2022-08-20T19:01:00;3.23;;;2.13;;
27367;SDS011;14839;48.106;11.618;2022-08-20T19:06:05;2.53;;;1.90;;
27367;SDS011;14839;48.106;11.618;2022-08-20T19:08:45;1.73;;;1.63;;
27367;SDS011;14839;48.106;11.618;2022-08-20T19:11:33;1.97;;;1.57;;
27367;SDS011;14839;48.106;11.618;2022-08-20T19:16:58;1.90;;;1.63;;
27367;SDS011;14839;48.106;11.618;2022-08-20T19:19:30;2.13;;;1.77;;
27367;SDS011;14839;48.106;11.618;2022-08-20T19:21:55;3.57;;;1.70;;
27367;SDS011;14839;48.106;11.618;2022-08-20T19:24:24;1.93;;;1.73;;
27367;SDS011;14839;48.106;11.618;2022-08-20T19:26:53;2.97;;;2.23;;